createdAt,value
2017-06-11T00:00:09.270Z,11.64
2017-06-11T00:00:37.292Z,11.75
2017-06-11T00:01:05.596Z,11.66
2017-06-11T00:01:33.876Z,11.7
2017-06-11T00:02:02.141Z,11.66
2017-06-11T00:02:30.357Z,11.68
2017-06-11T00:02:58.557Z,11.63
2017-06-11T00:03:26.855Z,11.63
2017-06-11T00:03:54.987Z,11.61
2017-06-11T00:04:23.211Z,11.67
2017-06-11T00:04:51.510Z,11.63
2017-06-11T00:05:19.848Z,11.56
2017-06-11T00:05:48.088Z,11.56
2017-06-11T00:06:16.205Z,11.59
2017-06-11T00:06:44.403Z,11.63
2017-06-11T00:07:12.595Z,11.64
2017-06-11T00:07:40.818Z,11.73
2017-06-11T00:08:08.997Z,11.66
2017-06-11T00:08:37.172Z,11.68
2017-06-11T00:09:05.239Z,11.66
2017-06-11T00:09:33.354Z,11.75
2017-06-11T00:10:01.383Z,11.67
2017-06-11T00:10:29.646Z,11.81
2017-06-11T00:10:57.893Z,11.78
2017-06-11T00:11:26.266Z,11.79
2017-06-11T00:11:54.397Z,11.75
2017-06-11T00:12:22.530Z,11.73
2017-06-11T00:12:50.580Z,11.63
2017-06-11T00:13:18.734Z,11.75
2017-06-11T00:13:46.841Z,11.76
2017-06-11T00:14:14.983Z,11.7
2017-06-11T00:14:43.141Z,11.71
2017-06-11T00:15:11.332Z,11.67
2017-06-11T00:15:39.499Z,11.79
2017-06-11T00:16:07.729Z,11.82
2017-06-11T00:16:36.190Z,11.78
2017-06-11T00:17:04.452Z,11.78
2017-06-11T00:17:32.685Z,11.78
2017-06-11T00:18:00.915Z,11.78
2017-06-11T00:18:29.087Z,11.81
2017-06-11T00:18:57.258Z,11.78
2017-06-11T00:19:25.440Z,11.73
2017-06-11T00:19:53.616Z,11.75
2017-06-11T00:20:21.903Z,11.82
2017-06-11T00:20:50.157Z,11.91
2017-06-11T00:21:18.323Z,11.7
2017-06-11T00:21:46.535Z,11.73
2017-06-11T00:22:14.771Z,11.67
2017-06-11T00:22:42.987Z,11.73
2017-06-11T00:23:11.210Z,11.67
2017-06-11T00:23:39.337Z,11.66
2017-06-11T00:24:07.517Z,11.7
2017-06-11T00:24:35.605Z,11.7
2017-06-11T00:25:03.702Z,11.59
2017-06-11T00:25:31.911Z,11.73
2017-06-11T00:26:00.073Z,11.71
2017-06-11T00:26:28.270Z,11.63
2017-06-11T00:26:56.350Z,11.61
2017-06-11T00:27:24.469Z,11.64
2017-06-11T00:27:52.696Z,11.64
2017-06-11T00:28:20.985Z,11.7
2017-06-11T00:28:49.278Z,11.66
2017-06-11T00:29:17.420Z,11.68
2017-06-11T00:29:45.577Z,11.71
2017-06-11T00:30:13.797Z,11.57
2017-06-11T00:30:41.974Z,11.59
2017-06-11T00:31:10.165Z,11.6
2017-06-11T00:31:38.448Z,11.61
2017-06-11T00:32:06.600Z,11.61
2017-06-11T00:32:34.721Z,11.63
2017-06-11T00:33:02.979Z,11.63
2017-06-11T00:33:31.237Z,11.6
2017-06-11T00:33:59.426Z,11.59
2017-06-11T00:34:27.495Z,11.48
2017-06-11T00:34:55.715Z,11.43
2017-06-11T00:35:23.943Z,11.38
2017-06-11T00:35:52.198Z,11.41
2017-06-11T00:36:20.236Z,11.31
2017-06-11T00:36:48.555Z,11.38
2017-06-11T00:37:16.640Z,11.33
2017-06-11T00:37:44.813Z,11.2
2017-06-11T00:38:13.036Z,11.2
2017-06-11T00:38:41.216Z,11.2
2017-06-11T00:39:09.407Z,11.18
2017-06-11T00:39:37.507Z,11.1
2017-06-11T00:40:05.745Z,11.2
2017-06-11T00:40:33.883Z,11.13
2017-06-11T00:41:02.036Z,11.13
2017-06-11T00:41:30.168Z,11.12
2017-06-11T00:41:58.555Z,11.15
2017-06-11T00:42:26.837Z,11.06
2017-06-11T00:42:55.006Z,11.06
2017-06-11T00:43:23.251Z,11.09
2017-06-11T00:43:51.290Z,11.12
2017-06-11T00:44:19.520Z,11.03
2017-06-11T00:44:47.721Z,10.95
2017-06-11T00:45:15.986Z,11.06
2017-06-11T00:45:44.242Z,11.02
2017-06-11T00:46:12.506Z,10.97
2017-06-11T00:46:40.758Z,11
2017-06-11T00:47:09.120Z,10.92
2017-06-11T00:47:37.252Z,10.91
2017-06-11T00:48:05.395Z,10.88
2017-06-11T00:48:33.586Z,10.94
2017-06-11T00:49:01.732Z,10.94
2017-06-11T00:49:29.627Z,10.84
2017-06-11T00:49:57.815Z,10.85
2017-06-11T00:50:26.325Z,10.87
2017-06-11T00:50:54.448Z,10.79
2017-06-11T00:51:22.432Z,10.85
2017-06-11T00:51:50.730Z,10.7
2017-06-11T00:52:19.045Z,10.69
2017-06-11T00:52:47.049Z,10.75
2017-06-11T00:53:15.190Z,10.67
2017-06-11T00:53:43.349Z,10.72
2017-06-11T00:54:11.621Z,10.69
2017-06-11T00:54:39.718Z,10.77
2017-06-11T00:55:07.975Z,10.77
2017-06-11T00:55:36.138Z,10.8
2017-06-11T00:56:04.337Z,10.77
2017-06-11T00:56:32.501Z,10.79
2017-06-11T00:57:00.774Z,10.73
2017-06-11T00:57:28.911Z,10.83
2017-06-11T00:57:57.197Z,10.92
2017-06-11T00:58:25.410Z,11.03
2017-06-11T00:58:53.585Z,11
2017-06-11T00:59:21.853Z,11.09
2017-06-11T00:59:50.052Z,11.12
2017-06-11T01:00:18.300Z,11.16
2017-06-11T01:00:46.519Z,11.12
2017-06-11T01:01:14.784Z,11.15
2017-06-11T01:01:42.979Z,11.15
2017-06-11T01:02:11.255Z,11.15
2017-06-11T01:02:39.350Z,11.09
2017-06-11T01:03:07.601Z,11.12
2017-06-11T01:03:35.660Z,11.06
2017-06-11T01:04:03.887Z,11.08
2017-06-11T01:04:32.055Z,11.02
2017-06-11T01:05:00.281Z,10.92
2017-06-11T01:05:28.588Z,10.95
2017-06-11T01:05:56.830Z,10.91
2017-06-11T01:06:24.966Z,10.87
2017-06-11T01:06:53.244Z,10.9
2017-06-11T01:07:21.433Z,10.85
2017-06-11T01:07:49.569Z,10.76
2017-06-11T01:08:17.813Z,10.77
2017-06-11T01:08:45.971Z,10.79
2017-06-11T01:09:14.155Z,10.8
2017-06-11T01:09:42.290Z,10.84
2017-06-11T01:10:10.435Z,10.8
2017-06-11T01:10:38.568Z,10.79
2017-06-11T01:11:06.697Z,10.77
2017-06-11T01:11:34.952Z,10.79
2017-06-11T01:12:03.091Z,10.73
2017-06-11T01:12:31.321Z,10.76
2017-06-11T01:12:59.571Z,10.66
2017-06-11T01:13:27.679Z,10.67
2017-06-11T01:13:55.957Z,10.69
2017-06-11T01:14:24.198Z,10.61
2017-06-11T01:14:52.437Z,10.63
2017-06-11T01:15:20.587Z,10.63
2017-06-11T01:15:48.827Z,10.63
2017-06-11T01:16:17.009Z,10.52
2017-06-11T01:16:45.177Z,10.54
2017-06-11T01:17:13.232Z,10.54
2017-06-11T01:17:41.491Z,10.46
2017-06-11T01:18:09.681Z,10.49
2017-06-11T01:18:37.760Z,10.39
2017-06-11T01:19:06.046Z,10.39
2017-06-11T01:19:34.220Z,10.36
2017-06-11T01:20:02.434Z,10.33
2017-06-11T01:20:30.619Z,10.35
2017-06-11T01:20:58.900Z,10.32
2017-06-11T01:21:27.027Z,10.36
2017-06-11T01:21:55.121Z,10.39
2017-06-11T01:22:23.214Z,10.36
2017-06-11T01:22:51.252Z,10.38
2017-06-11T01:23:19.548Z,10.38
2017-06-11T01:23:47.776Z,10.33
2017-06-11T01:24:15.927Z,10.38
2017-06-11T01:24:44.106Z,10.33
2017-06-11T01:25:12.320Z,10.36
2017-06-11T01:25:40.463Z,10.38
2017-06-11T01:26:08.735Z,10.31
2017-06-11T01:26:36.984Z,10.31
2017-06-11T01:27:05.148Z,10.26
2017-06-11T01:27:33.403Z,10.25
2017-06-11T01:28:01.674Z,10.25
2017-06-11T01:28:29.804Z,10.28
2017-06-11T01:28:58.010Z,10.21
2017-06-11T01:29:26.242Z,10.25
2017-06-11T01:29:54.362Z,10.2
2017-06-11T01:30:22.547Z,10.21
2017-06-11T01:30:50.803Z,10.2
2017-06-11T01:31:19.050Z,10.2
2017-06-11T01:31:47.030Z,10.14
2017-06-11T01:32:15.258Z,10.14
2017-06-11T01:32:43.486Z,10.08
2017-06-11T01:33:11.668Z,10.11
2017-06-11T01:33:39.812Z,10.08
2017-06-11T01:34:07.980Z,10.05
2017-06-11T01:34:36.180Z,10.1
2017-06-11T01:35:04.164Z,10.13
2017-06-11T01:35:32.396Z,10.14
2017-06-11T01:36:00.483Z,10.21
2017-06-11T01:36:28.550Z,10.18
2017-06-11T01:36:56.730Z,10.13
2017-06-11T01:37:24.877Z,10.11
2017-06-11T01:37:53.007Z,10.23
2017-06-11T01:38:21.110Z,10.18
2017-06-11T01:38:49.228Z,10.13
2017-06-11T01:39:17.384Z,10.11
2017-06-11T01:39:45.526Z,10.05
2017-06-11T01:40:13.752Z,10.03
2017-06-11T01:40:41.807Z,9.95
2017-06-11T01:41:09.903Z,9.98
2017-06-11T01:41:38.165Z,9.99
2017-06-11T01:42:06.369Z,9.95
2017-06-11T01:42:34.742Z,10
2017-06-11T01:43:02.960Z,9.98
2017-06-11T01:43:31.122Z,9.9
2017-06-11T01:43:59.266Z,9.99
2017-06-11T01:44:27.401Z,9.93
2017-06-11T01:44:55.463Z,9.84
2017-06-11T01:45:23.694Z,9.9
2017-06-11T01:45:51.857Z,9.81
2017-06-11T01:46:19.993Z,9.8
2017-06-11T01:46:48.063Z,9.82
2017-06-11T01:47:16.124Z,9.81
2017-06-11T01:47:44.394Z,9.85
2017-06-11T01:48:12.316Z,9.8
2017-06-11T01:48:40.586Z,9.85
2017-06-11T01:49:08.679Z,9.82
2017-06-11T01:49:36.821Z,9.85
2017-06-11T01:50:04.974Z,9.82
2017-06-11T01:50:33.134Z,9.81
2017-06-11T01:51:01.281Z,9.84
2017-06-11T01:51:29.409Z,9.88
2017-06-11T01:51:57.690Z,9.85
2017-06-11T01:52:25.957Z,9.98
2017-06-11T01:52:54.221Z,9.95
2017-06-11T01:53:22.397Z,9.9
2017-06-11T01:53:50.611Z,9.99
2017-06-11T01:54:18.758Z,9.85
2017-06-11T01:54:46.949Z,9.95
2017-06-11T01:55:15.218Z,10.02
2017-06-11T01:55:43.469Z,9.93
2017-06-11T01:56:11.602Z,9.92
2017-06-11T01:56:39.686Z,9.85
2017-06-11T01:57:07.903Z,9.84
2017-06-11T01:57:36.208Z,9.9
2017-06-11T01:58:04.394Z,9.85
2017-06-11T01:58:32.624Z,9.88
2017-06-11T01:59:00.843Z,9.88
2017-06-11T01:59:28.925Z,9.89
2017-06-11T01:59:57.202Z,9.82
2017-06-11T02:00:25.367Z,9.84
2017-06-11T02:00:53.456Z,9.85
2017-06-11T02:01:21.755Z,9.75
2017-06-11T02:01:49.843Z,9.78
2017-06-11T02:02:17.919Z,9.75
2017-06-11T02:02:46.268Z,9.77
2017-06-11T02:03:14.395Z,9.81
2017-06-11T02:03:42.560Z,9.7
2017-06-11T02:04:10.783Z,9.71
2017-06-11T02:04:39.039Z,9.57
2017-06-11T02:05:07.304Z,9.72
2017-06-11T02:05:35.452Z,9.57
2017-06-11T02:06:03.595Z,9.62
2017-06-11T02:06:31.824Z,9.6
2017-06-11T02:06:59.972Z,9.57
2017-06-11T02:07:28.092Z,9.59
2017-06-11T02:07:56.500Z,9.56
2017-06-11T02:08:24.639Z,9.59
2017-06-11T02:08:52.763Z,9.53
2017-06-11T02:09:21.012Z,9.53
2017-06-11T02:09:49.237Z,9.56
2017-06-11T02:10:17.339Z,9.57
2017-06-11T02:10:45.556Z,9.62
2017-06-11T02:11:13.705Z,9.6
2017-06-11T02:11:41.730Z,9.63
2017-06-11T02:12:09.899Z,9.6
2017-06-11T02:12:37.950Z,9.55
2017-06-11T02:13:06.233Z,9.55
2017-06-11T02:13:34.422Z,9.7
2017-06-11T02:14:02.598Z,9.64
2017-06-11T02:14:30.748Z,9.72
2017-06-11T02:14:58.813Z,9.7
2017-06-11T02:15:27.083Z,9.74
2017-06-11T02:15:55.061Z,9.7
2017-06-11T02:16:23.199Z,9.74
2017-06-11T02:16:51.261Z,9.66
2017-06-11T02:17:19.530Z,9.72
2017-06-11T02:17:47.703Z,9.74
2017-06-11T02:18:16.088Z,9.78
2017-06-11T02:18:44.342Z,9.8
2017-06-11T02:19:12.477Z,9.84
2017-06-11T02:19:40.854Z,9.85
2017-06-11T02:20:09.092Z,9.96
2017-06-11T02:20:37.313Z,9.82
2017-06-11T02:21:05.571Z,9.96
2017-06-11T02:21:33.826Z,9.88
2017-06-11T02:22:01.962Z,9.95
2017-06-11T02:22:30.109Z,9.93
2017-06-11T02:22:58.543Z,9.98
2017-06-11T02:23:26.784Z,9.99
2017-06-11T02:23:55.008Z,9.93
2017-06-11T02:24:23.321Z,9.88
2017-06-11T02:24:51.452Z,9.85
2017-06-11T02:25:19.588Z,9.85
2017-06-11T02:25:47.768Z,9.74
2017-06-11T02:26:16.769Z,9.89
2017-06-11T02:26:44.829Z,9.75
2017-06-11T02:27:13.109Z,9.72
2017-06-11T02:27:41.262Z,9.74
2017-06-11T02:28:09.540Z,9.77
2017-06-11T02:28:37.688Z,9.8
2017-06-11T02:29:05.887Z,9.78
2017-06-11T02:29:34.031Z,9.78
2017-06-11T02:30:02.199Z,9.77
2017-06-11T02:30:30.312Z,9.74
2017-06-11T02:30:58.474Z,9.78
2017-06-11T02:31:26.593Z,9.74
2017-06-11T02:31:54.793Z,9.85
2017-06-11T02:32:22.931Z,9.9
2017-06-11T02:32:51.122Z,9.85
2017-06-11T02:33:19.338Z,9.95
2017-06-11T02:33:47.478Z,9.96
2017-06-11T02:34:15.700Z,9.99
2017-06-11T02:34:43.858Z,9.96
2017-06-11T02:35:11.905Z,10
2017-06-11T02:35:40.100Z,9.99
2017-06-11T02:36:08.312Z,10.05
2017-06-11T02:36:36.374Z,9.95
2017-06-11T02:37:04.686Z,10.02
2017-06-11T02:37:32.959Z,10.05
2017-06-11T02:38:01.202Z,10.03
2017-06-11T02:38:29.548Z,10.08
2017-06-11T02:38:57.808Z,10.05
2017-06-11T02:39:25.866Z,10.11
2017-06-11T02:39:54.131Z,10.11
2017-06-11T02:40:22.849Z,10.05
2017-06-11T02:40:51.108Z,10.02
2017-06-11T02:41:19.254Z,10.07
2017-06-11T02:41:47.386Z,10.13
2017-06-11T02:42:15.426Z,10.13
2017-06-11T02:42:43.576Z,10.05
2017-06-11T02:43:11.950Z,10.02
2017-06-11T02:43:40.210Z,10.05
2017-06-11T02:44:08.476Z,9.99
2017-06-11T02:44:36.709Z,9.99
2017-06-11T02:45:04.967Z,9.95
2017-06-11T02:45:33.088Z,10.05
2017-06-11T02:46:01.335Z,10.05
2017-06-11T02:46:29.614Z,10.07
2017-06-11T02:46:57.680Z,10.1
2017-06-11T02:47:25.925Z,10.14
2017-06-11T02:47:54.212Z,10.11
2017-06-11T02:48:22.436Z,10.15
2017-06-11T02:48:50.625Z,10.18
2017-06-11T02:49:18.796Z,10.14
2017-06-11T02:49:47.054Z,10.15
2017-06-11T02:50:15.124Z,10.17
2017-06-11T02:50:43.167Z,10.18
2017-06-11T02:51:11.276Z,10.18
2017-06-11T02:51:39.524Z,10.14
2017-06-11T02:52:07.671Z,10.17
2017-06-11T02:52:35.838Z,10.18
2017-06-11T02:53:03.956Z,10.18
2017-06-11T02:53:32.420Z,10.17
2017-06-11T02:54:00.509Z,10.17
2017-06-11T02:54:28.835Z,10.17
2017-06-11T02:54:57.104Z,10.14
2017-06-11T02:55:25.382Z,10.15
2017-06-11T02:55:53.553Z,10.03
2017-06-11T02:56:21.813Z,10.05
2017-06-11T02:56:50.065Z,10.05
2017-06-11T02:57:18.261Z,10.03
2017-06-11T02:57:46.431Z,10.07
2017-06-11T02:58:14.635Z,10.07
2017-06-11T02:58:42.886Z,10.07
2017-06-11T02:59:11.013Z,10.05
2017-06-11T02:59:39.237Z,10.05
2017-06-11T03:00:07.430Z,9.99
2017-06-11T03:00:35.683Z,10.11
2017-06-11T03:01:03.922Z,10.02
2017-06-11T03:01:32.165Z,10.08
2017-06-11T03:02:00.392Z,10.03
2017-06-11T03:02:28.647Z,9.99
2017-06-11T03:02:56.838Z,10.05
2017-06-11T03:03:24.993Z,9.99
2017-06-11T03:03:53.490Z,9.93
2017-06-11T03:04:21.753Z,9.99
2017-06-11T03:04:50.013Z,10.03
2017-06-11T03:05:18.243Z,10.02
2017-06-11T03:05:46.505Z,10.02
2017-06-11T03:06:14.682Z,9.98
2017-06-11T03:06:42.977Z,9.95
2017-06-11T03:07:11.109Z,9.98
2017-06-11T03:07:39.187Z,9.9
2017-06-11T03:08:07.226Z,9.88
2017-06-11T03:08:35.491Z,9.81
2017-06-11T03:09:03.806Z,9.85
2017-06-11T03:09:31.785Z,9.81
2017-06-11T03:09:59.987Z,9.77
2017-06-11T03:10:28.220Z,9.77
2017-06-11T03:10:56.354Z,9.81
2017-06-11T03:11:24.621Z,9.77
2017-06-11T03:11:52.800Z,9.67
2017-06-11T03:12:21.036Z,9.77
2017-06-11T03:12:49.297Z,9.71
2017-06-11T03:13:17.412Z,9.67
2017-06-11T03:13:45.836Z,9.62
2017-06-11T03:14:14.072Z,9.7
2017-06-11T03:14:42.261Z,9.66
2017-06-11T03:15:10.516Z,9.59
2017-06-11T03:15:38.756Z,9.59
2017-06-11T03:16:06.999Z,9.64
2017-06-11T03:16:35.189Z,9.55
2017-06-11T03:17:03.358Z,9.53
2017-06-11T03:17:31.596Z,9.44
2017-06-11T03:17:59.630Z,9.48
2017-06-11T03:18:27.796Z,9.45
2017-06-11T03:18:56.078Z,9.41
2017-06-11T03:19:24.230Z,9.42
2017-06-11T03:19:52.482Z,9.39
2017-06-11T03:20:20.626Z,9.32
2017-06-11T03:20:48.905Z,9.29
2017-06-11T03:21:17.032Z,9.24
2017-06-11T03:21:45.330Z,9.24
2017-06-11T03:22:13.569Z,9.19
2017-06-11T03:22:41.728Z,9.27
2017-06-11T03:23:09.966Z,9.27
2017-06-11T03:23:38.187Z,9.2
2017-06-11T03:24:06.341Z,9.14
2017-06-11T03:24:34.384Z,9.17
2017-06-11T03:25:02.564Z,9.12
2017-06-11T03:25:30.724Z,9.14
2017-06-11T03:25:59.012Z,9.19
2017-06-11T03:26:27.166Z,9.08
2017-06-11T03:26:55.342Z,9.04
2017-06-11T03:27:23.389Z,9.08
2017-06-11T03:27:51.642Z,9.08
2017-06-11T03:28:19.915Z,9.09
2017-06-11T03:28:48.063Z,9.17
2017-06-11T03:29:16.380Z,9.05
2017-06-11T03:29:44.453Z,9.12
2017-06-11T03:30:12.621Z,9.04
2017-06-11T03:30:40.785Z,9.04
2017-06-11T03:31:09.037Z,9.03
2017-06-11T03:31:37.253Z,9.04
2017-06-11T03:32:05.530Z,9.11
2017-06-11T03:32:33.685Z,9.04
2017-06-11T03:33:01.753Z,9.03
2017-06-11T03:33:29.987Z,9.03
2017-06-11T03:33:58.355Z,9.04
2017-06-11T03:34:26.583Z,9.01
2017-06-11T03:34:54.837Z,9.03
2017-06-11T03:35:23.043Z,8.98
2017-06-11T03:35:51.277Z,8.97
2017-06-11T03:36:19.426Z,8.87
2017-06-11T03:36:47.682Z,8.89
2017-06-11T03:37:15.780Z,8.92
2017-06-11T03:37:44.072Z,8.92
2017-06-11T03:38:12.314Z,8.82
2017-06-11T03:38:40.546Z,8.79
2017-06-11T03:39:08.972Z,8.76
2017-06-11T03:39:37.241Z,8.77
2017-06-11T03:40:05.483Z,8.79
2017-06-11T03:40:33.611Z,8.83
2017-06-11T03:41:01.850Z,8.8
2017-06-11T03:41:29.919Z,8.74
2017-06-11T03:41:58.179Z,8.85
2017-06-11T03:42:26.816Z,8.82
2017-06-11T03:42:54.944Z,8.92
2017-06-11T03:43:23.079Z,8.9
2017-06-11T03:43:51.124Z,8.87
2017-06-11T03:44:19.567Z,8.87
2017-06-11T03:44:47.693Z,8.97
2017-06-11T03:45:15.916Z,9
2017-06-11T03:45:44.158Z,8.98
2017-06-11T03:46:12.417Z,8.92
2017-06-11T03:46:40.667Z,8.89
2017-06-11T03:47:08.781Z,8.89
2017-06-11T03:47:36.924Z,8.9
2017-06-11T03:48:05.119Z,8.86
2017-06-11T03:48:33.192Z,8.86
2017-06-11T03:49:01.498Z,8.82
2017-06-11T03:49:29.653Z,8.8
2017-06-11T03:49:57.828Z,8.9
2017-06-11T03:50:25.884Z,8.83
2017-06-11T03:50:54.157Z,8.82
2017-06-11T03:51:22.211Z,8.86
2017-06-11T03:51:50.450Z,8.94
2017-06-11T03:52:18.576Z,8.94
2017-06-11T03:52:46.985Z,8.92
2017-06-11T03:53:14.958Z,9.01
2017-06-11T03:53:43.213Z,8.94
2017-06-11T03:54:11.347Z,8.95
2017-06-11T03:54:39.607Z,8.9
2017-06-11T03:55:07.826Z,8.9
2017-06-11T03:55:36.027Z,8.83
2017-06-11T03:56:04.247Z,8.95
2017-06-11T03:56:32.513Z,8.97
2017-06-11T03:57:00.689Z,8.97
2017-06-11T03:57:28.771Z,8.97
2017-06-11T03:57:57.013Z,8.86
2017-06-11T03:58:25.138Z,8.92
2017-06-11T03:58:53.229Z,8.85
2017-06-11T03:59:21.465Z,8.87
2017-06-11T03:59:49.620Z,8.74
2017-06-11T04:00:17.767Z,8.69
2017-06-11T04:00:45.950Z,8.76
2017-06-11T04:01:14.175Z,8.77
2017-06-11T04:01:42.299Z,8.76
2017-06-11T04:02:10.423Z,8.72
2017-06-11T04:02:38.586Z,8.71
2017-06-11T04:03:06.804Z,8.76
2017-06-11T04:03:34.930Z,8.72
2017-06-11T04:04:03.242Z,8.82
2017-06-11T04:04:31.668Z,8.76
2017-06-11T04:04:59.854Z,8.79
2017-06-11T04:05:28.048Z,8.82
2017-06-11T04:05:56.203Z,8.87
2017-06-11T04:06:24.437Z,8.85
2017-06-11T04:06:52.667Z,8.85
2017-06-11T04:07:20.669Z,8.85
2017-06-11T04:07:48.843Z,8.86
2017-06-11T04:08:16.993Z,8.87
2017-06-11T04:08:45.068Z,8.9
2017-06-11T04:09:13.268Z,8.94
2017-06-11T04:09:41.413Z,8.89
2017-06-11T04:10:09.548Z,8.87
2017-06-11T04:10:37.917Z,8.95
2017-06-11T04:11:06.179Z,8.92
2017-06-11T04:11:34.412Z,8.87
2017-06-11T04:12:02.560Z,8.98
2017-06-11T04:12:30.723Z,8.92
2017-06-11T04:12:58.851Z,8.9
2017-06-11T04:13:27.145Z,8.92
2017-06-11T04:13:55.289Z,8.9
2017-06-11T04:14:23.557Z,8.83
2017-06-11T04:14:52.073Z,8.97
2017-06-11T04:15:20.313Z,8.89
2017-06-11T04:15:48.544Z,8.98
2017-06-11T04:16:16.804Z,9.01
2017-06-11T04:16:45.064Z,9.05
2017-06-11T04:17:13.236Z,9.03
2017-06-11T04:17:41.416Z,9.04
2017-06-11T04:18:09.469Z,9.01
2017-06-11T04:18:37.739Z,9.09
2017-06-11T04:19:06.015Z,9.14
2017-06-11T04:19:34.099Z,9.09
2017-06-11T04:20:02.374Z,9.12
2017-06-11T04:20:30.637Z,9.14
2017-06-11T04:20:58.792Z,9.11
2017-06-11T04:21:26.980Z,9.11
2017-06-11T04:21:55.229Z,9.17
2017-06-11T04:22:23.466Z,9.11
2017-06-11T04:22:51.695Z,9.11
2017-06-11T04:23:19.732Z,9.11
2017-06-11T04:23:48.064Z,9.09
2017-06-11T04:24:16.292Z,9.14
2017-06-11T04:24:44.740Z,9.16
2017-06-11T04:25:12.925Z,9.12
2017-06-11T04:25:41.230Z,9.03
2017-06-11T04:26:09.320Z,9.11
2017-06-11T04:26:37.545Z,9.03
2017-06-11T04:27:05.667Z,9.08
2017-06-11T04:27:33.707Z,9.08
2017-06-11T04:28:01.946Z,9.09
2017-06-11T04:28:30.174Z,9.04
2017-06-11T04:28:58.436Z,9.04
2017-06-11T04:29:26.559Z,9.05
2017-06-11T04:29:54.822Z,9.08
2017-06-11T04:30:22.941Z,9.09
2017-06-11T04:30:51.166Z,8.95
2017-06-11T04:31:19.336Z,9.03
2017-06-11T04:31:47.571Z,8.97
2017-06-11T04:32:15.750Z,8.89
2017-06-11T04:32:43.929Z,8.95
2017-06-11T04:33:11.983Z,8.9
2017-06-11T04:33:40.261Z,8.94
2017-06-11T04:34:08.460Z,8.87
2017-06-11T04:34:36.417Z,8.87
2017-06-11T04:35:04.806Z,8.86
2017-06-11T04:35:33.064Z,8.92
2017-06-11T04:36:01.026Z,8.76
2017-06-11T04:36:29.273Z,8.74
2017-06-11T04:36:57.458Z,8.72
2017-06-11T04:37:25.527Z,8.76
2017-06-11T04:37:53.703Z,8.64
2017-06-11T04:38:21.978Z,8.65
2017-06-11T04:38:50.243Z,8.67
2017-06-11T04:39:18.403Z,8.67
2017-06-11T04:39:46.588Z,8.62
2017-06-11T04:40:14.728Z,8.58
2017-06-11T04:40:42.913Z,8.49
2017-06-11T04:41:11.107Z,8.49
2017-06-11T04:41:39.220Z,8.54
2017-06-11T04:42:07.368Z,8.5
2017-06-11T04:42:35.502Z,8.49
2017-06-11T04:43:03.680Z,8.53
2017-06-11T04:43:31.905Z,8.53
2017-06-11T04:43:59.986Z,8.5
2017-06-11T04:44:28.799Z,8.53
2017-06-11T04:44:56.947Z,8.49
2017-06-11T04:45:25.438Z,8.52
2017-06-11T04:45:53.478Z,8.54
2017-06-11T04:46:21.564Z,8.44
2017-06-11T04:46:49.737Z,8.5
2017-06-11T04:47:17.988Z,8.47
2017-06-11T04:47:46.207Z,8.42
2017-06-11T04:48:14.369Z,8.42
2017-06-11T04:48:42.459Z,8.46
2017-06-11T04:49:10.628Z,8.49
2017-06-11T04:49:38.805Z,8.44
2017-06-11T04:50:07.374Z,8.5
2017-06-11T04:50:35.633Z,8.5
2017-06-11T04:51:03.888Z,8.5
2017-06-11T04:51:32.010Z,8.5
2017-06-11T04:52:00.270Z,8.52
2017-06-11T04:52:28.417Z,8.5
2017-06-11T04:52:56.560Z,8.47
2017-06-11T04:53:24.654Z,8.57
2017-06-11T04:53:52.711Z,8.54
2017-06-11T04:54:21.009Z,8.54
2017-06-11T04:54:49.520Z,8.58
2017-06-11T04:55:18.036Z,8.61
2017-06-11T04:55:46.069Z,8.69
2017-06-11T04:56:14.386Z,8.61
2017-06-11T04:56:42.582Z,8.61
2017-06-11T04:57:10.711Z,8.68
2017-06-11T04:57:38.956Z,8.61
2017-06-11T04:58:07.118Z,8.6
2017-06-11T04:58:35.320Z,8.62
2017-06-11T04:59:03.477Z,8.6
2017-06-11T04:59:31.517Z,8.62
2017-06-11T04:59:59.767Z,8.64
2017-06-11T05:00:27.839Z,8.57
2017-06-11T05:00:56.040Z,8.68
2017-06-11T05:01:24.172Z,8.62
2017-06-11T05:01:52.456Z,8.64
2017-06-11T05:02:20.584Z,8.64
2017-06-11T05:02:48.788Z,8.52
2017-06-11T05:03:16.980Z,8.64
2017-06-11T05:03:45.192Z,8.54
2017-06-11T05:04:13.210Z,8.64
2017-06-11T05:04:41.497Z,8.58
2017-06-11T05:05:10.008Z,8.69
2017-06-11T05:05:38.290Z,8.69
2017-06-11T05:06:06.308Z,8.6
2017-06-11T05:06:34.251Z,8.67
2017-06-11T05:07:02.500Z,8.69
2017-06-11T05:07:30.724Z,8.6
2017-06-11T05:07:58.956Z,8.64
2017-06-11T05:08:27.176Z,8.69
2017-06-11T05:08:55.315Z,8.69
2017-06-11T05:09:23.520Z,8.71
2017-06-11T05:09:51.615Z,8.8
2017-06-11T05:10:19.856Z,8.77
2017-06-11T05:10:48.291Z,8.76
2017-06-11T05:11:16.384Z,8.85
2017-06-11T05:11:44.600Z,8.8
2017-06-11T05:12:12.836Z,8.8
2017-06-11T05:12:41.007Z,8.85
2017-06-11T05:13:09.124Z,8.83
2017-06-11T05:13:37.369Z,8.82
2017-06-11T05:14:05.479Z,8.79
2017-06-11T05:14:33.773Z,8.76
2017-06-11T05:15:02.047Z,8.82
2017-06-11T05:15:30.206Z,8.72
2017-06-11T05:15:58.503Z,8.72
2017-06-11T05:16:26.591Z,8.69
2017-06-11T05:16:54.867Z,8.71
2017-06-11T05:17:23.078Z,8.77
2017-06-11T05:17:51.215Z,8.65
2017-06-11T05:18:19.400Z,8.69
2017-06-11T05:18:47.523Z,8.58
2017-06-11T05:19:15.705Z,8.64
2017-06-11T05:19:43.889Z,8.62
2017-06-11T05:20:11.987Z,8.47
2017-06-11T05:20:40.212Z,8.52
2017-06-11T05:21:08.389Z,8.57
2017-06-11T05:21:36.557Z,8.46
2017-06-11T05:22:04.770Z,8.53
2017-06-11T05:22:33.032Z,8.6
2017-06-11T05:23:01.255Z,8.64
2017-06-11T05:23:29.326Z,8.62
2017-06-11T05:23:57.451Z,8.6
2017-06-11T05:24:25.593Z,8.61
2017-06-11T05:24:53.817Z,8.61
2017-06-11T05:25:21.874Z,8.67
2017-06-11T05:25:50.351Z,8.67
2017-06-11T05:26:18.567Z,8.65
2017-06-11T05:26:46.800Z,8.64
2017-06-11T05:27:15.037Z,8.6
2017-06-11T05:27:43.259Z,8.6
2017-06-11T05:28:11.443Z,8.57
2017-06-11T05:28:39.592Z,8.5
2017-06-11T05:29:07.823Z,8.44
2017-06-11T05:29:35.927Z,8.44
2017-06-11T05:30:03.986Z,8.44
2017-06-11T05:30:32.191Z,8.46
2017-06-11T05:31:00.467Z,8.35
2017-06-11T05:31:28.700Z,8.39
2017-06-11T05:31:56.847Z,8.28
2017-06-11T05:32:24.873Z,8.28
2017-06-11T05:32:53.054Z,8.25
2017-06-11T05:33:20.907Z,8.25
2017-06-11T05:33:49.069Z,8.28
2017-06-11T05:34:17.367Z,8.25
2017-06-11T05:34:45.581Z,8.09
2017-06-11T05:35:13.794Z,8.1
2017-06-11T05:35:42.080Z,8.07
2017-06-11T05:36:10.623Z,8.14
2017-06-11T05:36:38.820Z,7.95
2017-06-11T05:37:07.061Z,7.98
2017-06-11T05:37:35.329Z,7.99
2017-06-11T05:38:03.252Z,7.92
2017-06-11T05:38:31.442Z,7.98
2017-06-11T05:38:59.631Z,7.96
2017-06-11T05:39:27.748Z,7.88
2017-06-11T05:39:55.879Z,8.01
2017-06-11T05:40:23.933Z,7.98
2017-06-11T05:40:52.216Z,7.99
2017-06-11T05:41:20.205Z,7.93
2017-06-11T05:41:48.475Z,7.98
2017-06-11T05:42:16.501Z,7.95
2017-06-11T05:42:44.793Z,7.99
2017-06-11T05:43:12.938Z,7.89
2017-06-11T05:43:41.116Z,7.96
2017-06-11T05:44:09.296Z,7.95
2017-06-11T05:44:37.491Z,7.95
2017-06-11T05:45:05.624Z,7.92
2017-06-11T05:45:33.718Z,7.95
2017-06-11T05:46:02.177Z,7.92
2017-06-11T05:46:30.395Z,7.85
2017-06-11T05:46:58.619Z,7.92
2017-06-11T05:47:26.790Z,7.93
2017-06-11T05:47:54.876Z,7.83
2017-06-11T05:48:23.037Z,7.92
2017-06-11T05:48:51.252Z,7.82
2017-06-11T05:49:19.511Z,7.77
2017-06-11T05:49:47.618Z,7.88
2017-06-11T05:50:15.837Z,7.77
2017-06-11T05:50:43.973Z,7.85
2017-06-11T05:51:12.190Z,7.75
2017-06-11T05:51:40.323Z,7.75
2017-06-11T05:52:08.471Z,7.77
2017-06-11T05:52:36.723Z,7.8
2017-06-11T05:53:04.879Z,7.85
2017-06-11T05:53:33.038Z,7.75
2017-06-11T05:54:01.330Z,7.8
2017-06-11T05:54:29.520Z,7.8
2017-06-11T05:54:57.652Z,7.78
2017-06-11T05:55:25.777Z,7.78
2017-06-11T05:55:53.972Z,7.74
2017-06-11T05:56:22.283Z,7.77
2017-06-11T05:56:50.819Z,7.75
2017-06-11T05:57:18.860Z,7.78
2017-06-11T05:57:47.048Z,7.82
2017-06-11T05:58:15.158Z,7.8
2017-06-11T05:58:43.241Z,7.95
2017-06-11T05:59:11.428Z,7.95
2017-06-11T05:59:39.608Z,7.99
2017-06-11T06:00:07.875Z,7.99
2017-06-11T06:00:35.828Z,8.09
2017-06-11T06:01:04.016Z,8.09
2017-06-11T06:01:32.243Z,8.24
2017-06-11T06:02:00.379Z,8.22
2017-06-11T06:02:28.529Z,8.25
2017-06-11T06:02:56.808Z,8.25
2017-06-11T06:03:24.885Z,8.32
2017-06-11T06:03:52.961Z,8.36
2017-06-11T06:04:21.127Z,8.44
2017-06-11T06:04:49.250Z,8.39
2017-06-11T06:05:17.564Z,8.44
2017-06-11T06:05:45.623Z,8.46
2017-06-11T06:06:13.865Z,8.46
2017-06-11T06:06:42.116Z,8.46
2017-06-11T06:07:10.325Z,8.43
2017-06-11T06:07:38.536Z,8.46
2017-06-11T06:08:07.644Z,8.54
2017-06-11T06:08:35.866Z,8.49
2017-06-11T06:09:03.901Z,8.47
2017-06-11T06:09:32.141Z,8.52
2017-06-11T06:10:00.182Z,8.49
2017-06-11T06:10:28.376Z,8.46
2017-06-11T06:10:56.547Z,8.61
2017-06-11T06:11:24.938Z,8.64
2017-06-11T06:11:53.195Z,8.62
2017-06-11T06:12:21.488Z,8.62